Time;durP1;ratioP1;P1;durP2;ratioP2;P2;SDS_P1;SDS_P2;PMS_P1;PMS_P2;Temp;Humidity;BMP_temperature;BMP_pressure;BME280_temperature;BME280_humidity;BME280_pressure;Samples;Min_cycle;Max_cycle;Signal;HPM_P1;HPM_P2
2023/04/10 00:00:36;;;;;;;58.42;37.20;;;9.00;89.80;;;;;;4980826;28;20096;-88
2023/04/10 00:03:02;;;;;;;54.35;35.20;;;9.00;90.00;;;;;;4967496;28;20050;-88
2023/04/10 00:05:28;;;;;;;53.85;37.20;;;9.00;90.00;;;;;;4958945;28;20093;-88
2023/04/10 00:07:54;;;;;;;54.83;37.00;;;9.00;89.90;;;;;;4961693;28;20049;-88
2023/04/10 00:10:20;;;;;;;56.45;37.88;;;9.00;90.10;;;;;;4962812;28;20042;-89
2023/04/10 00:12:45;;;;;;;55.22;38.03;;;9.00;90.10;;;;;;4969947;28;20407;-88
2023/04/10 00:15:11;;;;;;;56.53;39.90;;;8.90;90.10;;;;;;4945639;28;20062;-88
2023/04/10 00:17:37;;;;;;;59.53;39.88;;;8.90;90.40;;;;;;4966633;28;20027;-88
2023/04/10 00:20:03;;;;;;;57.13;40.15;;;8.90;90.30;;;;;;4973693;28;20034;-88
2023/04/10 00:22:29;;;;;;;58.92;40.25;;;8.90;90.70;;;;;;5004658;28;20096;-88
2023/04/10 00:24:55;;;;;;;58.92;40.67;;;8.90;90.50;;;;;;4965383;28;20039;-88
2023/04/10 00:27:20;;;;;;;59.30;38.53;;;8.90;90.40;;;;;;4975920;28;20115;-88
2023/04/10 00:29:46;;;;;;;60.95;38.22;;;8.90;90.50;;;;;;4954510;28;20459;-88
2023/04/10 00:32:12;;;;;;;62.70;39.60;;;8.90;90.80;;;;;;4977617;28;20034;-88
2023/04/10 00:34:38;;;;;;;65.63;39.33;;;8.90;90.80;;;;;;4952554;28;20538;-88
2023/04/10 00:37:03;;;;;;;60.67;39.25;;;8.90;91.10;;;;;;4945688;28;20117;-88
2023/04/10 00:39:29;;;;;;;61.03;41.20;;;8.80;91.00;;;;;;4963764;28;20084;-88
2023/04/10 00:41:56;;;;;;;59.72;39.95;;;8.80;91.10;;;;;;4950128;28;20045;-88
2023/04/10 00:44:22;;;;;;;63.88;39.63;;;8.80;91.40;;;;;;4967323;28;20099;-87
2023/04/10 00:46:47;;;;;;;60.00;39.00;;;8.80;91.40;;;;;;4996170;28;20074;-87
2023/04/10 00:49:13;;;;;;;60.05;40.05;;;8.70;91.40;;;;;;4948608;28;20047;-87
2023/04/10 00:51:40;;;;;;;62.83;41.33;;;8.70;91.70;;;;;;4979005;28;22098;-88
2023/04/10 00:54:09;;;;;;;63.08;38.53;;;8.70;91.70;;;;;;5010871;28;20049;-88
2023/04/10 00:56:36;;;;;;;64.55;39.28;;;8.70;91.60;;;;;;4951607;28;20503;-88
2023/04/10 00:59:02;;;;;;;64.60;40.28;;;8.60;91.80;;;;;;5003965;28;20546;-87
2023/04/10 01:01:27;;;;;;;58.92;39.92;;;8.60;92.00;;;;;;4952152;28;20045;-87
2023/04/10 01:03:53;;;;;;;69.18;42.50;;;8.60;92.00;;;;;;4972303;28;20039;-87
2023/04/10 01:06:59;;;;;;;65.80;42.15;;;8.60;92.10;;;;;;4970419;28;20069;-88
2023/04/10 01:09:43;;;;;;;66.95;41.50;;;8.50;92.70;;;;;;4969140;28;20042;-87
2023/04/10 01:12:18;;;;;;;63.35;41.55;;;8.50;92.60;;;;;;4974335;28;20039;-87
2023/04/10 01:15:05;;;;;;;62.53;41.88;;;8.50;92.80;;;;;;4963501;28;20042;-87
2023/04/10 01:18:01;;;;;;;63.22;41.55;;;8.40;93.00;;;;;;4992822;28;20037;-87
2023/04/10 01:20:31;;;;;;;64.05;40.30;;;8.40;93.20;;;;;;4959881;28;20050;-88
2023/04/10 01:23:19;;;;;;;66.40;42.50;;;8.40;93.20;;;;;;4988188;28;20549;-86
2023/04/10 01:26:05;;;;;;;71.68;45.72;;;8.30;94.10;;;;;;4983047;28;20471;-87
2023/04/10 01:28:46;;;;;;;66.13;41.63;;;8.30;93.80;;;;;;4952603;28;20034;-87
2023/04/10 01:31:17;;;;;;;70.65;45.33;;;8.30;94.30;;;;;;4986798;28;20047;-88
2023/04/10 01:33:48;;;;;;;70.05;43.22;;;8.20;93.60;;;;;;4960631;28;20093;-88
2023/04/10 01:36:20;;;;;;;68.00;43.97;;;8.20;93.60;;;;;;4977214;28;20521;-88
2023/04/10 01:38:49;;;;;;;63.03;42.33;;;8.20;93.50;;;;;;4953572;28;20138;-88
2023/04/10 01:41:15;;;;;;;71.65;45.33;;;8.20;94.10;;;;;;4977271;28;20416;-88
2023/04/10 01:43:42;;;;;;;66.43;43.58;;;8.20;94.00;;;;;;4969384;28;20050;-88
2023/04/10 01:46:08;;;;;;;68.72;43.75;;;8.20;94.10;;;;;;4948420;28;20035;-88
2023/04/10 01:48:34;;;;;;;67.28;45.13;;;8.10;93.80;;;;;;4985970;28;20523;-88
2023/04/10 01:51:03;;;;;;;66.82;43.33;;;8.10;94.00;;;;;;4968081;28;20424;-87
2023/04/10 01:53:30;;;;;;;70.88;42.45;;;8.10;93.80;;;;;;4951131;28;20516;-87
2023/04/10 01:55:56;;;;;;;71.30;43.28;;;8.10;94.30;;;;;;4980048;28;20118;-87
2023/04/10 01:58:22;;;;;;;66.90;44.22;;;8.10;94.40;;;;;;4949519;28;20125;-87
2023/04/10 02:00:47;;;;;;;66.32;42.85;;;8.10;94.20;;;;;;4966066;28;20500;-87
2023/04/10 02:03:13;;;;;;;67.97;43.28;;;8.00;94.40;;;;;;4953652;28;20080;-87
2023/04/10 02:05:57;;;;;;;64.68;42.80;;;8.00;94.50;;;;;;4954362;28;20534;-87
2023/04/10 02:08:30;;;;;;;64.57;42.90;;;8.00;95.20;;;;;;4965677;28;20160;-88
2023/04/10 02:11:28;;;;;;;69.90;42.95;;;8.00;94.90;;;;;;4977676;28;20042;-87
2023/04/10 02:13:58;;;;;;;66.57;41.15;;;8.00;95.50;;;;;;4969530;28;20041;-87
2023/04/10 02:16:25;;;;;;;61.53;41.30;;;8.00;94.60;;;;;;4969420;28;20045;-87
2023/04/10 02:18:52;;;;;;;62.33;41.90;;;8.00;94.30;;;;;;4965441;28;20109;-87
2023/04/10 02:21:18;;;;;;;61.80;40.72;;;8.00;95.10;;;;;;4959586;28;20049;-87
2023/04/10 02:23:44;;;;;;;62.95;39.88;;;8.00;94.60;;;;;;4951964;28;20042;-87
2023/04/10 02:26:10;;;;;;;60.53;41.83;;;7.90;94.60;;;;;;4997134;28;20047;-87
2023/04/10 02:28:39;;;;;;;63.28;40.90;;;8.00;94.60;;;;;;4968583;28;20045;-87
2023/04/10 02:31:05;;;;;;;66.22;42.13;;;7.90;94.90;;;;;;4967769;28;20046;-88
2023/04/10 02:33:31;;;;;;;59.83;40.53;;;7.90;94.70;;;;;;4969520;28;20045;-87
2023/04/10 02:35:56;;;;;;;63.40;41.10;;;7.90;94.60;;;;;;4998952;28;20035;-87
2023/04/10 02:38:22;;;;;;;64.10;42.15;;;7.90;95.00;;;;;;4948547;28;20399;-87
2023/04/10 02:40:49;;;;;;;63.92;40.78;;;7.90;94.90;;;;;;4972108;28;20116;-87
2023/04/10 02:43:14;;;;;;;63.70;41.75;;;7.90;95.00;;;;;;4966217;28;20045;-87
2023/04/10 02:45:40;;;;;;;64.68;42.08;;;7.90;94.80;;;;;;4943355;28;20042;-88
2023/04/10 02:48:06;;;;;;;68.57;44.67;;;7.90;95.00;;;;;;4962909;28;20046;-87
2023/04/10 02:50:32;;;;;;;68.78;43.97;;;7.90;94.90;;;;;;4972473;28;20041;-88
2023/04/10 02:52:57;;;;;;;63.95;42.40;;;7.90;95.00;;;;;;4950191;28;20038;-87
2023/04/10 02:55:23;;;;;;;70.22;43.58;;;7.90;95.10;;;;;;4972979;28;20042;-87
2023/04/10 02:57:49;;;;;;;64.68;43.38;;;7.90;95.30;;;;;;4975492;28;20517;-88
2023/04/10 03:00:15;;;;;;;64.63;43.53;;;7.90;95.30;;;;;;4978525;28;20400;-87
2023/04/10 03:02:40;;;;;;;67.05;41.70;;;7.90;95.30;;;;;;4952177;28;20514;-88
2023/04/10 03:05:07;;;;;;;68.97;43.00;;;7.90;95.30;;;;;;4955638;28;20042;-87
2023/04/10 03:07:33;;;;;;;67.45;43.72;;;7.80;95.30;;;;;;4965059;28;20043;-88
2023/04/10 03:09:59;;;;;;;68.88;44.88;;;7.80;95.30;;;;;;4946902;28;20390;-87
2023/04/10 03:12:24;;;;;;;68.60;45.63;;;7.90;95.10;;;;;;4957187;28;20066;-88
2023/04/10 03:14:50;;;;;;;73.25;46.20;;;7.80;95.30;;;;;;4947396;28;20056;-88
2023/04/10 03:17:16;;;;;;;66.95;43.85;;;7.80;95.20;;;;;;4945040;28;20042;-87
2023/04/10 03:19:41;;;;;;;63.28;42.33;;;7.80;95.10;;;;;;4951476;28;20531;-87
2023/04/10 03:22:07;;;;;;;66.15;42.60;;;7.80;94.90;;;;;;4967818;28;20066;-87
2023/04/10 03:24:33;;;;;;;67.25;45.30;;;7.80;95.10;;;;;;4980737;28;20152;-87
2023/04/10 03:26:58;;;;;;;70.53;45.47;;;7.90;95.20;;;;;;4958529;28;20053;-87
2023/04/10 03:29:24;;;;;;;65.95;42.95;;;7.80;95.30;;;;;;4977819;28;20492;-87
2023/04/10 03:31:49;;;;;;;68.55;45.42;;;7.80;95.20;;;;;;4975119;28;20130;-87
2023/04/10 03:34:15;;;;;;;70.35;44.70;;;7.80;95.30;;;;;;4980836;28;20038;-88
2023/04/10 03:36:41;;;;;;;69.05;45.47;;;7.80;95.70;;;;;;4998352;28;20129;-87
2023/04/10 03:39:07;;;;;;;66.72;44.67;;;7.80;95.40;;;;;;4980196;28;20038;-88
2023/04/10 03:41:32;;;;;;;73.57;46.08;;;7.80;95.40;;;;;;5001585;28;20068;-87
2023/04/10 03:43:59;;;;;;;67.78;46.50;;;7.80;95.70;;;;;;4966877;28;20046;-87
2023/04/10 03:46:24;;;;;;;70.43;45.70;;;7.80;95.80;;;;;;4989522;28;20035;-87
2023/04/10 03:48:52;;;;;;;74.30;44.10;;;7.80;95.90;;;;;;4972187;28;20045;-87
2023/04/10 03:51:18;;;;;;;68.80;45.38;;;7.80;95.90;;;;;;4971416;28;20563;-87
2023/04/10 03:53:44;;;;;;;65.63;43.83;;;7.70;95.90;;;;;;4948199;28;20112;-87
2023/04/10 03:56:10;;;;;;;72.53;44.30;;;7.70;96.20;;;;;;4953850;28;20488;-87
2023/04/10 03:58:35;;;;;;;67.47;43.95;;;7.70;96.20;;;;;;4952876;28;20524;-87
2023/04/10 04:01:01;;;;;;;71.28;45.28;;;7.70;96.20;;;;;;4949960;28;20043;-87
2023/04/10 04:03:26;;;;;;;69.78;43.75;;;7.70;96.60;;;;;;4945658;28;20041;-88
2023/04/10 04:05:52;;;;;;;70.85;44.20;;;7.60;96.90;;;;;;4998298;28;20432;-87
2023/04/10 04:08:18;;;;;;;71.40;44.08;;;7.60;96.80;;;;;;4975722;28;20030;-88
2023/04/10 04:10:44;;;;;;;65.32;42.70;;;7.60;97.20;;;;;;4955912;28;20048;-87
2023/04/10 04:13:09;;;;;;;68.03;42.17;;;7.60;97.20;;;;;;4955933;28;20137;-87
2023/04/10 04:15:35;;;;;;;64.65;43.40;;;7.60;96.90;;;;;;4954246;28;20078;-87
2023/04/10 04:18:01;;;;;;;70.10;44.70;;;7.50;97.00;;;;;;4955452;28;20565;-87
2023/04/10 04:20:26;;;;;;;67.78;45.13;;;7.50;97.20;;;;;;4999249;28;20027;-87
2023/04/10 04:22:52;;;;;;;73.75;46.38;;;7.50;97.30;;;;;;4955615;28;20081;-87
2023/04/10 04:25:18;;;;;;;76.88;46.88;;;7.50;97.50;;;;;;4988247;28;20033;-87
2023/04/10 04:27:44;;;;;;;68.50;44.78;;;7.50;97.80;;;;;;4981789;28;20088;-87
2023/04/10 04:30:10;;;;;;;68.07;43.63;;;7.50;97.80;;;;;;4987110;28;20046;-88
2023/04/10 04:32:36;;;;;;;69.15;45.80;;;7.40;98.20;;;;;;4964963;28;20109;-87
2023/04/10 04:35:02;;;;;;;65.25;43.80;;;7.50;98.10;;;;;;4951090;28;20121;-87
2023/04/10 04:37:27;;;;;;;66.63;45.63;;;7.40;98.20;;;;;;4991317;28;20035;-88
2023/04/10 04:39:53;;;;;;;66.15;42.97;;;7.40;98.50;;;;;;4961244;28;20118;-87
2023/04/10 04:42:19;;;;;;;64.90;41.67;;;7.40;98.80;;;;;;4991481;28;20456;-87
2023/04/10 04:44:44;;;;;;;65.18;43.22;;;7.40;98.80;;;;;;4964898;28;20046;-87
2023/04/10 04:47:10;;;;;;;71.72;44.92;;;7.40;99.10;;;;;;4999644;28;20054;-87
2023/04/10 04:49:36;;;;;;;70.03;45.75;;;7.30;99.00;;;;;;4951402;28;20041;-87
2023/04/10 04:52:01;;;;;;;67.20;45.28;;;7.30;99.40;;;;;;4957630;28;20038;-87
2023/04/10 04:54:27;;;;;;;63.28;41.30;;;7.30;99.40;;;;;;4990106;28;20050;-87
2023/04/10 04:56:53;;;;;;;62.28;43.17;;;7.30;99.30;;;;;;4993614;28;20554;-87
2023/04/10 04:59:18;;;;;;;65.93;42.30;;;7.30;99.90;;;;;;4952181;28;20043;-87
2023/04/10 05:01:44;;;;;;;70.38;44.17;;;7.30;99.80;;;;;;4948575;28;20132;-87
2023/04/10 05:04:10;;;;;;;69.13;44.42;;;7.30;99.90;;;;;;4962530;28;20049;-87
2023/04/10 05:06:36;;;;;;;70.30;43.20;;;7.20;99.90;;;;;;4980000;28;20042;-87
2023/04/10 05:09:01;;;;;;;67.70;42.75;;;7.20;99.90;;;;;;4949022;28;20053;-88
2023/04/10 05:11:27;;;;;;;66.28;43.83;;;7.20;99.90;;;;;;4942205;28;20039;-87
2023/04/10 05:13:53;;;;;;;64.15;42.80;;;7.20;99.90;;;;;;4984573;28;20117;-87
2023/04/10 05:16:18;;;;;;;66.15;42.33;;;7.20;99.90;;;;;;4953976;28;20484;-87
2023/04/10 05:18:46;;;;;;;63.03;43.00;;;7.20;99.90;;;;;;4948081;28;20039;-87
2023/04/10 05:21:11;;;;;;;69.75;43.42;;;7.30;99.90;;;;;;4966018;28;20117;-88
2023/04/10 05:23:37;;;;;;;69.53;42.40;;;7.20;99.90;;;;;;4965795;28;20134;-87
2023/04/10 05:26:04;;;;;;;68.00;42.55;;;7.30;99.90;;;;;;4961897;28;20120;-88
2023/04/10 05:28:30;;;;;;;66.07;42.47;;;7.30;99.90;;;;;;4945785;28;20054;-88
2023/04/10 05:30:56;;;;;;;68.47;40.80;;;7.30;99.90;;;;;;4954366;28;20038;-88
2023/04/10 05:33:21;;;;;;;68.10;41.72;;;7.40;99.90;;;;;;4963097;28;20133;-88
2023/04/10 05:35:47;;;;;;;74.47;43.17;;;7.40;99.90;;;;;;4950338;28;20031;-88
2023/04/10 05:38:12;;;;;;;70.53;43.30;;;7.40;99.90;;;;;;4960037;28;20667;-87
2023/04/10 05:40:39;;;;;;;63.67;42.53;;;7.50;99.90;;;;;;4952570;28;20042;-87
2023/04/10 05:43:05;;;;;;;70.40;44.42;;;7.50;99.90;;;;;;4977725;28;20509;-87
2023/04/10 05:45:30;;;;;;;69.90;44.30;;;7.50;99.90;;;;;;5008050;28;20046;-88
2023/04/10 05:47:56;;;;;;;73.03;45.08;;;7.60;99.90;;;;;;4976606;28;21273;-88
2023/04/10 05:50:22;;;;;;;72.10;43.00;;;7.60;99.90;;;;;;4982135;28;20562;-87
2023/04/10 05:52:47;;;;;;;74.13;45.63;;;7.60;99.90;;;;;;4956624;28;20037;-87
2023/04/10 05:55:13;;;;;;;67.80;42.92;;;7.60;99.90;;;;;;5004273;28;20093;-87
2023/04/10 05:57:39;;;;;;;63.28;42.50;;;7.70;99.90;;;;;;4953260;28;20066;-88
2023/04/10 06:00:05;;;;;;;75.63;44.58;;;7.70;99.90;;;;;;4948541;28;20129;-87
2023/04/10 06:02:31;;;;;;;69.63;45.67;;;7.80;99.90;;;;;;4950154;28;20133;-87
2023/04/10 06:04:57;;;;;;;72.88;43.28;;;7.80;99.90;;;;;;4954787;28;20572;-87
2023/04/10 06:07:23;;;;;;;68.90;43.33;;;7.90;99.90;;;;;;4957463;28;20082;-88
2023/04/10 06:09:49;;;;;;;66.65;44.50;;;7.90;99.90;;;;;;4989274;28;20046;-88
2023/04/10 06:12:15;;;;;;;71.35;43.72;;;8.00;99.90;;;;;;4961314;28;20081;-87
2023/04/10 06:14:40;;;;;;;67.82;42.08;;;8.00;99.90;;;;;;4948512;28;20065;-88
2023/04/10 06:17:06;;;;;;;65.70;41.83;;;8.10;99.70;;;;;;4968326;28;20093;-86
2023/04/10 06:19:32;;;;;;;67.38;43.00;;;8.10;99.20;;;;;;4968339;28;20093;-87
2023/04/10 06:21:57;;;;;;;68.95;41.30;;;8.20;99.50;;;;;;4966274;28;20043;-87
2023/04/10 06:24:23;;;;;;;64.97;42.13;;;8.20;99.20;;;;;;4985661;28;20045;-87
2023/04/10 06:26:49;;;;;;;62.80;41.08;;;8.30;98.90;;;;;;4957499;28;20054;-87
2023/04/10 06:29:14;;;;;;;64.38;42.75;;;8.30;98.30;;;;;;4959081;28;20042;-87
2023/04/10 06:31:40;;;;;;;63.67;41.95;;;8.40;97.90;;;;;;4956414;28;20042;-89
2023/04/10 06:34:06;;;;;;;61.28;39.85;;;8.50;97.80;;;;;;4963236;28;20042;-88
2023/04/10 06:36:32;;;;;;;62.58;39.53;;;8.60;97.50;;;;;;5006004;28;20034;-88
2023/04/10 06:38:58;;;;;;;59.63;37.95;;;8.60;97.30;;;;;;4994967;28;20109;-88
2023/04/10 06:41:23;;;;;;;56.25;38.53;;;8.70;97.20;;;;;;4986174;28;20133;-87
2023/04/10 06:43:49;;;;;;;61.85;40.28;;;8.70;97.00;;;;;;4960113;28;20072;-87
2023/04/10 06:46:16;;;;;;;58.88;39.35;;;8.80;97.50;;;;;;4971272;28;20034;-87
2023/04/10 06:48:41;;;;;;;64.97;40.03;;;8.90;96.90;;;;;;4948790;28;20508;-87
2023/04/10 06:51:07;;;;;;;60.95;37.95;;;9.00;96.70;;;;;;4982254;28;20130;-88
2023/04/10 06:53:33;;;;;;;56.10;37.72;;;9.00;96.30;;;;;;4991857;28;20034;-87
2023/04/10 06:55:58;;;;;;;56.85;36.05;;;9.10;96.00;;;;;;4966901;28;20085;-88
2023/04/10 06:58:24;;;;;;;56.53;34.33;;;9.10;95.90;;;;;;4999544;28;20055;-88
2023/04/10 07:00:50;;;;;;;50.78;32.88;;;9.20;95.10;;;;;;4955694;28;20049;-87
2023/04/10 07:03:15;;;;;;;53.28;33.25;;;9.20;94.90;;;;;;4973857;28;20088;-88
2023/04/10 07:05:41;;;;;;;47.90;31.08;;;9.30;94.60;;;;;;4990460;28;20038;-88
2023/04/10 07:08:07;;;;;;;53.35;32.20;;;9.40;93.90;;;;;;4986334;28;20046;-88
2023/04/10 07:10:33;;;;;;;46.08;31.20;;;9.40;93.60;;;;;;4988050;28;20507;-87
2023/04/10 07:13:00;;;;;;;50.53;32.10;;;9.50;93.30;;;;;;4987245;28;20038;-87
2023/04/10 07:15:25;;;;;;;48.88;33.75;;;9.50;93.10;;;;;;4951678;28;20034;-87
2023/04/10 07:17:51;;;;;;;47.83;32.33;;;9.60;92.90;;;;;;4953737;28;20049;-87
2023/04/10 07:20:17;;;;;;;49.08;32.13;;;9.60;92.50;;;;;;4964398;28;20039;-88
2023/04/10 07:22:42;;;;;;;49.55;33.17;;;9.70;92.40;;;;;;4995178;28;20106;-88
2023/04/10 07:25:08;;;;;;;52.53;32.10;;;9.70;92.40;;;;;;4985646;28;20193;-88
2023/04/10 07:27:34;;;;;;;43.83;29.55;;;9.80;92.10;;;;;;5028126;28;20049;-88
2023/04/10 07:29:59;;;;;;;45.40;30.48;;;9.90;92.10;;;;;;4988797;28;20060;-88
2023/04/10 07:32:25;;;;;;;42.88;29.17;;;9.90;92.00;;;;;;4986891;28;20050;-88
2023/04/10 07:34:51;;;;;;;44.85;28.85;;;10.00;91.60;;;;;;4994982;28;20038;-88
2023/04/10 07:37:17;;;;;;;43.33;28.05;;;10.10;91.40;;;;;;4989909;28;20117;-88
2023/04/10 07:39:43;;;;;;;40.92;27.65;;;10.20;91.00;;;;;;4983483;28;20522;-87
2023/04/10 07:42:10;;;;;;;42.25;26.30;;;10.30;90.70;;;;;;4975516;28;20037;-88
2023/04/10 07:44:36;;;;;;;41.20;26.17;;;10.40;90.50;;;;;;4977184;28;20056;-87
2023/04/10 07:47:02;;;;;;;39.72;26.52;;;10.40;90.50;;;;;;4993131;28;20121;-87
2023/04/10 07:49:28;;;;;;;40.85;26.08;;;10.50;90.60;;;;;;5001021;28;20052;-88
2023/04/10 07:51:54;;;;;;;37.80;24.95;;;10.60;90.60;;;;;;4985199;28;20033;-88
2023/04/10 07:54:20;;;;;;;36.05;24.45;;;10.70;90.10;;;;;;4986478;28;20037;-88
2023/04/10 07:56:46;;;;;;;36.75;23.42;;;10.80;89.00;;;;;;4958250;28;20049;-88
2023/04/10 07:59:11;;;;;;;33.80;23.05;;;11.00;88.40;;;;;;4961428;28;20037;-88
2023/04/10 08:01:37;;;;;;;37.78;22.52;;;11.10;88.40;;;;;;4967865;28;20034;-88
2023/04/10 08:04:03;;;;;;;32.25;21.40;;;11.20;87.50;;;;;;4974167;28;20118;-88
2023/04/10 08:06:30;;;;;;;35.70;22.45;;;11.30;85.70;;;;;;4967548;28;20042;-87
2023/04/10 08:08:56;;;;;;;32.78;20.27;;;11.50;85.70;;;;;;4979157;28;20045;-88
2023/04/10 08:11:27;;;;;;;31.63;20.48;;;11.60;85.10;;;;;;4981189;28;20038;-88
2023/04/10 08:14:00;;;;;;;35.05;20.83;;;11.70;83.90;;;;;;4974687;28;20040;-88
2023/04/10 08:16:30;;;;;;;30.55;20.85;;;11.80;83.30;;;;;;4954917;28;20642;-87
2023/04/10 08:18:57;;;;;;;26.83;19.45;;;11.90;83.30;;;;;;4989219;28;20389;-88
2023/04/10 08:21:25;;;;;;;29.85;20.38;;;12.10;82.40;;;;;;5004659;28;20042;-88
2023/04/10 08:23:52;;;;;;;29.58;18.83;;;12.20;82.30;;;;;;4981342;28;20050;-88
2023/04/10 08:26:20;;;;;;;28.23;19.75;;;12.40;80.90;;;;;;4966286;28;20038;-88
2023/04/10 08:28:50;;;;;;;28.50;18.85;;;12.50;81.00;;;;;;4968415;28;20451;-88
2023/04/10 08:31:20;;;;;;;30.30;20.70;;;12.60;80.10;;;;;;4962407;28;20515;-88
2023/04/10 08:33:47;;;;;;;29.23;18.50;;;12.70;79.00;;;;;;4957254;28;20263;-88
2023/04/10 08:36:16;;;;;;;30.75;19.80;;;12.80;78.90;;;;;;4964069;28;20475;-88
2023/04/10 08:38:45;;;;;;;37.55;19.02;;;12.90;78.10;;;;;;4989500;28;20034;-88
2023/04/10 08:41:17;;;;;;;28.27;18.80;;;13.00;77.10;;;;;;4998365;28;20100;-88
2023/04/10 08:43:44;;;;;;;;;;;13.00;76.00;;;;;;5004164;28;20037;-88
2023/04/10 08:46:11;;;;;;;28.83;25.80;;;13.10;75.30;;;;;;4965940;28;20335;-88
2023/04/10 08:49:00;;;;;;;26.98;18.02;;;13.20;75.60;;;;;;4971530;28;20034;-88
2023/04/10 08:51:31;;;;;;;27.55;18.00;;;13.30;75.70;;;;;;4988276;28;20534;-88
2023/04/10 08:54:13;;;;;;;29.48;20.33;;;13.30;76.20;;;;;;5001602;28;20164;-88
2023/04/10 08:56:41;;;;;;;25.35;18.75;;;13.40;75.10;;;;;;4979503;28;20104;-88
2023/04/10 08:59:08;;;;;;;28.63;25.50;;;13.50;74.80;;;;;;4972591;28;20245;-88
2023/04/10 09:01:34;;;;;;;27.05;19.33;;;13.60;73.50;;;;;;4954249;28;20096;-88
2023/04/10 09:04:00;;;;;;;26.17;18.13;;;13.70;74.50;;;;;;4956485;28;20042;-88
2023/04/10 09:06:26;;;;;;;25.58;17.40;;;13.80;74.20;;;;;;4953991;28;20093;-88
2023/04/10 09:08:51;;;;;;;27.23;24.42;;;13.80;73.30;;;;;;4984448;28;20416;-88
2023/04/10 09:11:17;;;;;;;28.48;18.80;;;13.90;71.90;;;;;;4956160;28;20043;-88
2023/04/10 09:13:43;;;;;;;25.45;16.95;;;14.00;72.20;;;;;;4994808;28;20030;-88
2023/04/10 09:16:10;;;;;;;24.73;19.77;;;14.10;72.00;;;;;;4990167;28;20373;-88
2023/04/10 09:18:54;;;;;;;26.80;23.60;;;14.20;71.60;;;;;;4957064;28;20492;-89
2023/04/10 09:21:20;;;;;;;25.90;23.15;;;14.40;72.50;;;;;;5004646;28;20046;-88
2023/04/10 09:23:48;;;;;;;23.73;17.20;;;14.50;71.80;;;;;;4973420;28;20510;-88
2023/04/10 09:26:31;;;;;;;24.15;15.52;;;14.60;71.70;;;;;;4973742;28;20035;-89
2023/04/10 09:29:00;;;;;;;22.05;19.73;;;14.70;70.30;;;;;;4993113;28;20054;-88
2023/04/10 09:31:29;;;;;;;23.00;15.50;;;14.80;69.40;;;;;;4994431;28;20070;-88
2023/04/10 09:34:13;;;;;;;21.95;17.45;;;14.80;69.30;;;;;;4990975;28;20081;-88
2023/04/10 09:36:40;;;;;;;20.42;18.23;;;14.90;68.30;;;;;;4996555;28;20042;-88
2023/04/10 09:39:09;;;;;;;19.75;16.60;;;15.00;67.90;;;;;;4996328;28;20033;-88
2023/04/10 09:41:45;;;;;;;19.15;16.50;;;15.10;67.00;;;;;;4980093;28;20042;-87
2023/04/10 09:44:11;;;;;;;19.67;15.45;;;15.10;66.50;;;;;;4975736;28;20073;-88
2023/04/10 09:46:37;;;;;;;17.58;10.95;;;15.20;65.80;;;;;;5010927;28;20073;-88
2023/04/10 09:49:06;;;;;;;17.50;9.82;;;15.20;66.10;;;;;;4997118;28;20092;-88
2023/04/10 09:51:34;;;;;;;16.83;13.10;;;15.20;65.90;;;;;;5012574;28;20053;-88
2023/04/10 09:54:01;;;;;;;18.77;12.48;;;15.20;64.50;;;;;;4996978;28;20046;-88
2023/04/10 09:56:28;;;;;;;14.38;11.73;;;15.20;64.20;;;;;;5004409;28;20080;-89
2023/04/10 09:58:58;;;;;;;14.65;10.90;;;15.20;64.40;;;;;;5013978;28;20033;-89
2023/04/10 10:01:27;;;;;;;15.45;9.02;;;15.10;63.60;;;;;;4974104;28;20038;-88
2023/04/10 10:03:54;;;;;;;14.50;9.50;;;15.10;64.80;;;;;;4960564;28;20042;-89
2023/04/10 10:06:22;;;;;;;12.50;8.10;;;15.10;65.50;;;;;;4961277;28;20045;-89
2023/04/10 10:08:48;;;;;;;16.38;12.15;;;15.20;65.90;;;;;;4977189;28;20418;-89
2023/04/10 10:11:19;;;;;;;13.77;11.02;;;15.20;64.10;;;;;;4993016;28;20042;-89
2023/04/10 10:13:55;;;;;;;13.48;9.07;;;15.30;62.90;;;;;;4996191;28;20141;-89
2023/04/10 10:16:50;;;;;;;13.73;8.55;;;15.40;64.30;;;;;;4968010;28;20046;-89
2023/04/10 10:19:26;;;;;;;12.55;9.32;;;15.40;63.30;;;;;;5004125;28;20046;-89
2023/04/10 10:21:54;;;;;;;11.55;9.35;;;15.50;64.40;;;;;;4975387;28;20415;-89
2023/04/10 10:24:22;;;;;;;12.75;9.93;;;15.70;63.40;;;;;;5003064;28;20034;-89
2023/04/10 10:26:50;;;;;;;15.82;10.07;;;15.80;64.30;;;;;;4987089;28;20045;-89
2023/04/10 10:29:17;;;;;;;11.18;6.95;;;15.80;62.70;;;;;;4959404;28;20042;-88
2023/04/10 10:31:44;;;;;;;12.60;8.95;;;15.80;63.80;;;;;;4959370;28;20042;-89
2023/04/10 10:34:10;;;;;;;13.75;8.20;;;15.90;63.60;;;;;;4966713;28;20046;-89
2023/04/10 10:36:36;;;;;;;11.93;9.05;;;16.00;62.90;;;;;;4997390;28;20080;-89
2023/04/10 10:39:10;;;;;;;12.20;8.85;;;16.10;62.70;;;;;;4976379;28;20037;-89
2023/04/10 10:41:55;;;;;;;12.57;8.60;;;16.10;62.00;;;;;;4943983;28;20085;-89
2023/04/10 10:44:45;;;;;;;11.90;9.07;;;16.20;61.70;;;;;;5005573;28;20046;-90
2023/04/10 10:47:21;;;;;;;12.27;7.22;;;16.20;62.50;;;;;;4947044;28;20455;-89
2023/04/10 10:49:53;;;;;;;10.77;8.68;;;16.10;62.20;;;;;;4979269;28;20041;-89
2023/04/10 10:52:38;;;;;;;10.50;7.40;;;16.20;62.40;;;;;;4971623;28;20092;-89
2023/04/10 10:55:26;;;;;;;10.80;6.53;;;16.20;61.50;;;;;;4972920;28;20574;-89
2023/04/10 10:57:54;;;;;;;11.20;8.27;;;16.20;61.70;;;;;;4940193;28;20061;-89
2023/04/10 11:00:21;;;;;;;10.90;7.55;;;16.30;61.50;;;;;;4979421;28;20035;-89
2023/04/10 11:03:11;;;;;;;10.55;7.82;;;16.40;61.20;;;;;;5004485;28;20085;-89
2023/04/10 11:05:54;;;;;;;11.05;7.63;;;16.30;61.20;;;;;;4981872;28;20042;-89
2023/04/10 11:08:34;;;;;;;;;;;16.40;61.00;;;;;;4992599;28;20038;-89
2023/04/10 11:11:04;;;;;;;9.98;7.07;;;16.30;61.80;;;;;;4999451;28;20387;-90
2023/04/10 11:13:31;;;;;;;12.60;6.25;;;16.40;61.80;;;;;;4976187;28;20041;-90
2023/04/10 11:15:58;;;;;;;10.23;7.00;;;16.40;61.80;;;;;;4965298;28;20054;-90
2023/04/10 11:18:46;;;;;;;10.55;7.03;;;16.40;61.60;;;;;;4970013;28;20049;-89
2023/04/10 11:21:22;;;;;;;10.38;6.15;;;16.50;62.20;;;;;;4969002;28;20042;-89
2023/04/10 11:23:54;;;;;;;10.43;5.30;;;16.50;61.10;;;;;;4985834;28;20104;-89
2023/04/10 11:26:32;;;;;;;8.85;5.10;;;16.50;60.10;;;;;;4966119;28;20279;-89
2023/04/10 11:28:58;;;;;;;9.68;5.60;;;16.50;60.30;;;;;;4977822;28;20041;-90
2023/04/10 11:31:25;;;;;;;12.75;5.82;;;16.60;59.40;;;;;;4965986;28;20323;-90
2023/04/10 11:33:57;;;;;;;8.75;4.85;;;16.60;59.60;;;;;;5002383;28;20606;-90
2023/04/10 11:36:23;;;;;;;9.65;4.25;;;16.60;59.90;;;;;;4983993;28;20566;-89
2023/04/10 11:38:52;;;;;;;8.85;5.07;;;16.60;60.10;;;;;;4999952;28;20042;-90
2023/04/10 11:41:18;;;;;;;9.15;5.10;;;16.60;60.10;;;;;;4998308;28;20399;-90
2023/04/10 11:43:44;;;;;;;11.75;5.57;;;16.50;60.10;;;;;;4962405;28;20034;-90
2023/04/10 11:46:09;;;;;;;8.10;4.75;;;16.50;60.00;;;;;;4985607;28;20045;-89
2023/04/10 11:48:36;;;;;;;8.77;5.03;;;16.50;59.70;;;;;;4983931;28;21830;-89
2023/04/10 11:51:12;;;;;;;8.80;5.13;;;16.50;59.20;;;;;;4968628;28;20034;-89
2023/04/10 11:53:39;;;;;;;9.63;5.43;;;16.50;59.00;;;;;;4964975;28;20049;-88
2023/04/10 11:56:06;;;;;;;8.68;4.80;;;16.50;58.90;;;;;;4967594;28;20092;-89
2023/04/10 11:58:32;;;;;;;7.63;4.00;;;16.60;59.00;;;;;;4968079;28;20052;-89
2023/04/10 12:01:13;;;;;;;8.68;4.80;;;16.60;59.60;;;;;;4966277;28;20108;-89
2023/04/10 12:03:41;;;;;;;8.65;5.03;;;16.60;60.00;;;;;;4980439;28;20038;-89
2023/04/10 12:06:11;;;;;;;8.13;5.03;;;16.80;59.80;;;;;;4967438;28;20045;-89
2023/04/10 12:08:39;;;;;;;13.93;5.68;;;16.90;60.50;;;;;;4996781;28;20097;-89
2023/04/10 12:11:06;;;;;;;10.05;4.50;;;17.00;59.90;;;;;;4986604;28;20038;-89
2023/04/10 12:13:32;;;;;;;8.30;4.55;;;17.10;60.10;;;;;;4964805;28;20128;-89
2023/04/10 12:16:00;;;;;;;11.95;4.50;;;17.20;60.00;;;;;;4964666;28;20172;-89
2023/04/10 12:18:27;;;;;;;7.65;4.40;;;17.20;60.00;;;;;;4981572;28;20362;-89
2023/04/10 12:20:56;;;;;;;9.10;4.97;;;17.30;60.20;;;;;;4958626;28;20431;-89
2023/04/10 12:23:26;;;;;;;8.40;4.70;;;17.40;59.90;;;;;;4995614;28;20120;-89
2023/04/10 12:25:52;;;;;;;13.65;4.90;;;17.40;60.70;;;;;;4990075;28;20049;-90
2023/04/10 12:28:21;;;;;;;10.20;5.00;;;17.60;60.90;;;;;;5006183;28;20463;-90
2023/04/10 12:30:49;;;;;;;9.02;4.63;;;17.60;59.10;;;;;;4991997;28;20042;-90
2023/04/10 12:33:20;;;;;;;8.93;4.57;;;17.80;60.30;;;;;;4977683;28;20410;-90
2023/04/10 12:35:46;;;;;;;10.02;4.75;;;18.00;59.70;;;;;;4964358;28;20121;-90
2023/04/10 12:38:11;;;;;;;8.88;4.35;;;18.10;58.80;;;;;;5003068;28;20603;-90
2023/04/10 12:40:39;;;;;;;8.63;4.40;;;18.20;58.20;;;;;;4958809;28;20042;-89